sensor_id;sensor_type;location;lat;lon;timestamp;P1;durP1;ratioP1;P2;durP2;ratioP2
34928;SDS011;21133;48.048;7.724;2022-08-19T00:02:10;13.10;;;8.80;;
34928;SDS011;21133;48.048;7.724;2022-08-19T00:04:36;9.10;;;8.50;;
34928;SDS011;21133;48.048;7.724;2022-08-19T00:07:04;9.77;;;8.97;;
34928;SDS011;21133;48.048;7.724;2022-08-19T00:09:30;12.20;;;8.87;;
34928;SDS011;21133;48.048;7.724;2022-08-19T00:11:56;8.97;;;8.20;;
34928;SDS011;21133;48.048;7.724;2022-08-19T00:14:23;10.73;;;8.90;;
34928;SDS011;21133;48.048;7.724;2022-08-19T00:16:49;14.80;;;8.27;;
34928;SDS011;21133;48.048;7.724;2022-08-19T00:19:19;9.70;;;8.80;;
34928;SDS011;21133;48.048;7.724;2022-08-19T00:21:45;7.90;;;7.20;;
34928;SDS011;21133;48.048;7.724;2022-08-19T00:24:12;9.07;;;8.47;;
34928;SDS011;21133;48.048;7.724;2022-08-19T00:26:38;8.50;;;7.67;;
34928;SDS011;21133;48.048;7.724;2022-08-19T00:29:05;9.27;;;8.57;;
34928;SDS011;21133;48.048;7.724;2022-08-19T00:31:31;8.17;;;7.37;;
34928;SDS011;21133;48.048;7.724;2022-08-19T00:33:57;8.07;;;7.27;;
34928;SDS011;21133;48.048;7.724;2022-08-19T00:36:23;9.77;;;8.93;;
34928;SDS011;21133;48.048;7.724;2022-08-19T00:38:49;9.03;;;8.33;;
34928;SDS011;21133;48.048;7.724;2022-08-19T00:41:18;9.80;;;9.20;;
34928;SDS011;21133;48.048;7.724;2022-08-19T00:44:03;9.37;;;8.73;;
34928;SDS011;21133;48.048;7.724;2022-08-19T00:46:31;8.53;;;7.87;;
34928;SDS011;21133;48.048;7.724;2022-08-19T00:48:58;7.43;;;7.07;;
34928;SDS011;21133;48.048;7.724;2022-08-19T00:51:26;8.90;;;8.10;;
34928;SDS011;21133;48.048;7.724;2022-08-19T00:53:54;8.60;;;7.97;;
34928;SDS011;21133;48.048;7.724;2022-08-19T00:56:20;8.43;;;7.73;;
34928;SDS011;21133;48.048;7.724;2022-08-19T00:58:46;9.60;;;8.70;;
34928;SDS011;21133;48.048;7.724;2022-08-19T01:01:13;8.73;;;8.03;;
34928;SDS011;21133;48.048;7.724;2022-08-19T01:03:39;9.27;;;8.60;;
34928;SDS011;21133;48.048;7.724;2022-08-19T01:06:05;9.80;;;8.93;;
34928;SDS011;21133;48.048;7.724;2022-08-19T01:08:31;12.10;;;8.50;;
34928;SDS011;21133;48.048;7.724;2022-08-19T01:10:57;9.10;;;8.60;;
34928;SDS011;21133;48.048;7.724;2022-08-19T01:13:25;10.20;;;9.20;;
34928;SDS011;21133;48.048;7.724;2022-08-19T01:15:54;12.97;;;9.90;;
34928;SDS011;21133;48.048;7.724;2022-08-19T01:18:20;12.77;;;9.33;;
34928;SDS011;21133;48.048;7.724;2022-08-19T01:20:47;11.10;;;10.03;;
34928;SDS011;21133;48.048;7.724;2022-08-19T01:23:13;10.53;;;9.73;;
34928;SDS011;21133;48.048;7.724;2022-08-19T01:25:45;12.03;;;10.83;;
34928;SDS011;21133;48.048;7.724;2022-08-19T01:28:17;11.73;;;10.53;;
34928;SDS011;21133;48.048;7.724;2022-08-19T01:30:44;11.60;;;10.70;;
34928;SDS011;21133;48.048;7.724;2022-08-19T01:33:10;13.80;;;10.70;;
34928;SDS011;21133;48.048;7.724;2022-08-19T01:35:36;18.40;;;11.50;;
34928;SDS011;21133;48.048;7.724;2022-08-19T01:38:03;10.50;;;9.63;;
34928;SDS011;21133;48.048;7.724;2022-08-19T01:40:33;11.77;;;10.13;;
34928;SDS011;21133;48.048;7.724;2022-08-19T01:42:59;10.80;;;9.70;;
34928;SDS011;21133;48.048;7.724;2022-08-19T01:45:26;11.33;;;10.23;;
34928;SDS011;21133;48.048;7.724;2022-08-19T01:47:53;9.70;;;8.90;;
34928;SDS011;21133;48.048;7.724;2022-08-19T01:50:19;10.53;;;9.70;;
34928;SDS011;21133;48.048;7.724;2022-08-19T01:52:45;10.57;;;9.73;;
34928;SDS011;21133;48.048;7.724;2022-08-19T01:55:12;11.50;;;10.27;;
34928;SDS011;21133;48.048;7.724;2022-08-19T01:57:39;8.20;;;7.60;;
34928;SDS011;21133;48.048;7.724;2022-08-19T02:00:08;14.50;;;9.47;;
34928;SDS011;21133;48.048;7.724;2022-08-19T02:02:34;13.83;;;9.33;;
34928;SDS011;21133;48.048;7.724;2022-08-19T02:05:00;11.30;;;10.50;;
34928;SDS011;21133;48.048;7.724;2022-08-19T02:07:26;11.17;;;10.07;;
34928;SDS011;21133;48.048;7.724;2022-08-19T02:09:54;12.33;;;10.30;;
34928;SDS011;21133;48.048;7.724;2022-08-19T02:12:20;10.43;;;9.43;;
34928;SDS011;21133;48.048;7.724;2022-08-19T02:14:46;11.17;;;10.17;;
34928;SDS011;21133;48.048;7.724;2022-08-19T02:17:12;12.43;;;9.53;;
34928;SDS011;21133;48.048;7.724;2022-08-19T02:19:39;24.40;;;9.13;;
34928;SDS011;21133;48.048;7.724;2022-08-19T02:22:05;10.40;;;9.47;;
34928;SDS011;21133;48.048;7.724;2022-08-19T02:24:31;13.20;;;9.20;;
34928;SDS011;21133;48.048;7.724;2022-08-19T02:26:57;9.00;;;8.00;;
34928;SDS011;21133;48.048;7.724;2022-08-19T02:29:23;9.30;;;8.40;;
34928;SDS011;21133;48.048;7.724;2022-08-19T02:31:49;8.23;;;7.70;;
34928;SDS011;21133;48.048;7.724;2022-08-19T02:34:16;6.77;;;6.27;;
34928;SDS011;21133;48.048;7.724;2022-08-19T02:36:42;8.63;;;7.83;;
34928;SDS011;21133;48.048;7.724;2022-08-19T02:39:09;8.30;;;7.80;;
34928;SDS011;21133;48.048;7.724;2022-08-19T02:41:34;9.37;;;8.77;;
34928;SDS011;21133;48.048;7.724;2022-08-19T02:44:02;10.03;;;9.23;;
34928;SDS011;21133;48.048;7.724;2022-08-19T02:46:30;15.80;;;8.93;;
34928;SDS011;21133;48.048;7.724;2022-08-19T02:48:57;9.73;;;8.80;;
34928;SDS011;21133;48.048;7.724;2022-08-19T02:51:24;9.13;;;8.53;;
34928;SDS011;21133;48.048;7.724;2022-08-19T02:53:50;10.77;;;7.97;;
34928;SDS011;21133;48.048;7.724;2022-08-19T02:56:17;16.60;;;9.00;;
34928;SDS011;21133;48.048;7.724;2022-08-19T02:58:43;9.03;;;8.37;;
34928;SDS011;21133;48.048;7.724;2022-08-19T03:01:09;8.63;;;7.97;;
34928;SDS011;21133;48.048;7.724;2022-08-19T03:03:36;13.43;;;8.97;;
34928;SDS011;21133;48.048;7.724;2022-08-19T03:06:03;8.93;;;7.70;;
34928;SDS011;21133;48.048;7.724;2022-08-19T03:08:29;9.27;;;8.53;;
34928;SDS011;21133;48.048;7.724;2022-08-19T03:10:55;7.67;;;7.27;;
34928;SDS011;21133;48.048;7.724;2022-08-19T03:13:21;8.83;;;8.13;;
34928;SDS011;21133;48.048;7.724;2022-08-19T03:15:48;14.83;;;7.77;;
34928;SDS011;21133;48.048;7.724;2022-08-19T03:18:14;10.30;;;9.30;;
34928;SDS011;21133;48.048;7.724;2022-08-19T03:20:41;8.67;;;8.10;;
34928;SDS011;21133;48.048;7.724;2022-08-19T03:23:07;11.87;;;9.17;;
34928;SDS011;21133;48.048;7.724;2022-08-19T03:25:38;9.33;;;8.70;;
34928;SDS011;21133;48.048;7.724;2022-08-19T03:28:05;10.60;;;9.57;;
34928;SDS011;21133;48.048;7.724;2022-08-19T03:30:32;9.03;;;8.17;;
34928;SDS011;21133;48.048;7.724;2022-08-19T03:32:58;8.73;;;8.13;;
34928;SDS011;21133;48.048;7.724;2022-08-19T03:35:24;9.10;;;8.40;;
34928;SDS011;21133;48.048;7.724;2022-08-19T03:37:50;9.37;;;8.57;;
34928;SDS011;21133;48.048;7.724;2022-08-19T03:40:17;8.67;;;7.67;;
34928;SDS011;21133;48.048;7.724;2022-08-19T03:42:44;8.67;;;7.87;;
34928;SDS011;21133;48.048;7.724;2022-08-19T03:45:11;8.40;;;7.53;;
34928;SDS011;21133;48.048;7.724;2022-08-19T03:47:37;10.37;;;9.37;;
34928;SDS011;21133;48.048;7.724;2022-08-19T03:50:03;12.50;;;8.37;;
34928;SDS011;21133;48.048;7.724;2022-08-19T03:52:29;13.37;;;8.10;;
34928;SDS011;21133;48.048;7.724;2022-08-19T03:54:55;8.47;;;8.00;;
34928;SDS011;21133;48.048;7.724;2022-08-19T03:57:21;15.00;;;8.93;;
34928;SDS011;21133;48.048;7.724;2022-08-19T03:59:47;9.77;;;9.03;;
34928;SDS011;21133;48.048;7.724;2022-08-19T04:02:14;9.00;;;8.30;;
34928;SDS011;21133;48.048;7.724;2022-08-19T04:04:41;11.47;;;10.57;;
34928;SDS011;21133;48.048;7.724;2022-08-19T04:07:08;9.93;;;9.10;;
34928;SDS011;21133;48.048;7.724;2022-08-19T04:09:35;9.83;;;9.17;;
34928;SDS011;21133;48.048;7.724;2022-08-19T04:12:04;9.60;;;8.63;;
34928;SDS011;21133;48.048;7.724;2022-08-19T04:14:30;10.50;;;9.63;;
34928;SDS011;21133;48.048;7.724;2022-08-19T04:16:57;10.73;;;9.83;;
34928;SDS011;21133;48.048;7.724;2022-08-19T04:19:25;10.43;;;9.63;;
34928;SDS011;21133;48.048;7.724;2022-08-19T04:21:51;19.03;;;9.60;;
34928;SDS011;21133;48.048;7.724;2022-08-19T04:24:18;10.57;;;9.30;;
34928;SDS011;21133;48.048;7.724;2022-08-19T04:26:44;11.47;;;10.37;;
34928;SDS011;21133;48.048;7.724;2022-08-19T04:29:11;10.90;;;9.90;;
34928;SDS011;21133;48.048;7.724;2022-08-19T04:31:38;14.43;;;12.70;;
34928;SDS011;21133;48.048;7.724;2022-08-19T04:34:06;12.40;;;11.17;;
34928;SDS011;21133;48.048;7.724;2022-08-19T04:36:33;14.53;;;12.10;;
34928;SDS011;21133;48.048;7.724;2022-08-19T04:39:04;13.30;;;12.10;;
34928;SDS011;21133;48.048;7.724;2022-08-19T04:41:30;14.00;;;10.77;;
34928;SDS011;21133;48.048;7.724;2022-08-19T04:44:14;13.80;;;9.70;;
34928;SDS011;21133;48.048;7.724;2022-08-19T04:46:43;10.83;;;9.83;;
34928;SDS011;21133;48.048;7.724;2022-08-19T04:49:09;14.70;;;10.90;;
34928;SDS011;21133;48.048;7.724;2022-08-19T04:51:36;19.40;;;10.00;;
34928;SDS011;21133;48.048;7.724;2022-08-19T04:54:02;10.70;;;9.70;;
34928;SDS011;21133;48.048;7.724;2022-08-19T04:56:28;9.70;;;8.80;;
34928;SDS011;21133;48.048;7.724;2022-08-19T04:58:55;11.43;;;10.20;;
34928;SDS011;21133;48.048;7.724;2022-08-19T05:01:23;10.53;;;9.47;;
34928;SDS011;21133;48.048;7.724;2022-08-19T05:03:49;10.97;;;9.90;;
34928;SDS011;21133;48.048;7.724;2022-08-19T05:06:16;10.10;;;9.30;;
34928;SDS011;21133;48.048;7.724;2022-08-19T05:08:43;10.30;;;9.40;;
34928;SDS011;21133;48.048;7.724;2022-08-19T05:11:19;10.50;;;9.47;;
34928;SDS011;21133;48.048;7.724;2022-08-19T05:13:45;9.63;;;8.83;;
34928;SDS011;21133;48.048;7.724;2022-08-19T05:16:13;10.73;;;8.90;;
34928;SDS011;21133;48.048;7.724;2022-08-19T05:18:40;10.47;;;9.67;;
34928;SDS011;21133;48.048;7.724;2022-08-19T05:21:24;10.93;;;10.23;;
34928;SDS011;21133;48.048;7.724;2022-08-19T05:24:09;10.10;;;9.40;;
34928;SDS011;21133;48.048;7.724;2022-08-19T05:26:36;10.63;;;9.83;;
34928;SDS011;21133;48.048;7.724;2022-08-19T05:29:02;8.10;;;7.60;;
34928;SDS011;21133;48.048;7.724;2022-08-19T05:31:29;9.67;;;9.07;;
34928;SDS011;21133;48.048;7.724;2022-08-19T05:33:55;10.40;;;9.40;;
34928;SDS011;21133;48.048;7.724;2022-08-19T05:36:23;10.37;;;9.03;;
34928;SDS011;21133;48.048;7.724;2022-08-19T05:38:49;11.30;;;9.60;;
34928;SDS011;21133;48.048;7.724;2022-08-19T05:41:16;10.33;;;9.53;;
34928;SDS011;21133;48.048;7.724;2022-08-19T05:43:42;10.73;;;9.43;;
34928;SDS011;21133;48.048;7.724;2022-08-19T05:46:08;10.93;;;8.30;;
34928;SDS011;21133;48.048;7.724;2022-08-19T05:48:41;9.73;;;9.00;;
34928;SDS011;21133;48.048;7.724;2022-08-19T05:51:07;10.60;;;9.70;;
34928;SDS011;21133;48.048;7.724;2022-08-19T05:53:34;9.30;;;8.47;;
34928;SDS011;21133;48.048;7.724;2022-08-19T05:56:18;10.17;;;9.17;;
34928;SDS011;21133;48.048;7.724;2022-08-19T05:58:45;9.47;;;8.67;;
34928;SDS011;21133;48.048;7.724;2022-08-19T06:01:12;14.00;;;9.10;;
34928;SDS011;21133;48.048;7.724;2022-08-19T06:03:38;10.43;;;9.50;;
34928;SDS011;21133;48.048;7.724;2022-08-19T06:06:05;11.17;;;10.03;;
34928;SDS011;21133;48.048;7.724;2022-08-19T06:08:32;9.67;;;8.60;;
34928;SDS011;21133;48.048;7.724;2022-08-19T06:10:59;10.10;;;9.10;;
34928;SDS011;21133;48.048;7.724;2022-08-19T06:13:36;9.83;;;8.50;;
34928;SDS011;21133;48.048;7.724;2022-08-19T06:16:03;9.80;;;9.00;;
34928;SDS011;21133;48.048;7.724;2022-08-19T06:18:29;9.47;;;8.57;;
34928;SDS011;21133;48.048;7.724;2022-08-19T06:20:55;10.00;;;8.03;;
34928;SDS011;21133;48.048;7.724;2022-08-19T06:23:21;9.13;;;8.43;;
34928;SDS011;21133;48.048;7.724;2022-08-19T06:25:47;15.30;;;9.03;;
34928;SDS011;21133;48.048;7.724;2022-08-19T06:28:13;9.53;;;8.70;;
34928;SDS011;21133;48.048;7.724;2022-08-19T06:30:39;12.07;;;8.70;;
34928;SDS011;21133;48.048;7.724;2022-08-19T06:33:05;7.90;;;7.40;;
34928;SDS011;21133;48.048;7.724;2022-08-19T06:35:31;9.40;;;8.43;;
34928;SDS011;21133;48.048;7.724;2022-08-19T06:37:57;8.73;;;7.93;;
34928;SDS011;21133;48.048;7.724;2022-08-19T06:40:24;8.47;;;7.87;;
34928;SDS011;21133;48.048;7.724;2022-08-19T06:42:52;8.67;;;7.80;;
34928;SDS011;21133;48.048;7.724;2022-08-19T06:45:18;7.73;;;7.23;;
34928;SDS011;21133;48.048;7.724;2022-08-19T06:47:45;8.77;;;8.27;;
34928;SDS011;21133;48.048;7.724;2022-08-19T06:50:13;10.30;;;9.30;;
34928;SDS011;21133;48.048;7.724;2022-08-19T06:52:39;11.50;;;8.37;;
34928;SDS011;21133;48.048;7.724;2022-08-19T06:55:05;9.00;;;8.20;;
34928;SDS011;21133;48.048;7.724;2022-08-19T06:57:31;12.73;;;7.80;;
34928;SDS011;21133;48.048;7.724;2022-08-19T06:59:58;11.13;;;8.30;;
34928;SDS011;21133;48.048;7.724;2022-08-19T07:02:26;6.97;;;6.47;;
34928;SDS011;21133;48.048;7.724;2022-08-19T07:04:52;9.60;;;8.77;;
34928;SDS011;21133;48.048;7.724;2022-08-19T07:07:19;8.73;;;8.20;;
34928;SDS011;21133;48.048;7.724;2022-08-19T07:09:45;9.67;;;8.77;;
34928;SDS011;21133;48.048;7.724;2022-08-19T07:12:13;9.20;;;8.50;;
34928;SDS011;21133;48.048;7.724;2022-08-19T07:14:44;9.27;;;8.00;;
34928;SDS011;21133;48.048;7.724;2022-08-19T07:17:13;9.03;;;8.23;;
34928;SDS011;21133;48.048;7.724;2022-08-19T07:19:39;8.67;;;8.03;;
34928;SDS011;21133;48.048;7.724;2022-08-19T07:22:06;7.60;;;6.87;;
34928;SDS011;21133;48.048;7.724;2022-08-19T07:24:34;9.43;;;8.10;;
34928;SDS011;21133;48.048;7.724;2022-08-19T07:27:02;8.30;;;7.90;;
34928;SDS011;21133;48.048;7.724;2022-08-19T07:29:30;9.13;;;8.37;;
34928;SDS011;21133;48.048;7.724;2022-08-19T07:31:58;8.70;;;8.20;;
34928;SDS011;21133;48.048;7.724;2022-08-19T07:34:24;8.00;;;7.30;;
34928;SDS011;21133;48.048;7.724;2022-08-19T07:36:51;10.83;;;8.33;;
34928;SDS011;21133;48.048;7.724;2022-08-19T07:39:22;7.23;;;6.80;;
34928;SDS011;21133;48.048;7.724;2022-08-19T07:41:48;8.13;;;7.60;;
34928;SDS011;21133;48.048;7.724;2022-08-19T07:44:15;8.43;;;7.83;;
34928;SDS011;21133;48.048;7.724;2022-08-19T07:46:43;11.00;;;7.93;;
34928;SDS011;21133;48.048;7.724;2022-08-19T07:49:09;8.67;;;8.07;;
34928;SDS011;21133;48.048;7.724;2022-08-19T07:51:42;9.10;;;8.27;;
34928;SDS011;21133;48.048;7.724;2022-08-19T07:54:08;8.30;;;7.50;;
34928;SDS011;21133;48.048;7.724;2022-08-19T07:56:34;9.73;;;8.60;;
34928;SDS011;21133;48.048;7.724;2022-08-19T07:59:00;9.13;;;8.50;;
34928;SDS011;21133;48.048;7.724;2022-08-19T08:01:26;9.70;;;8.67;;
34928;SDS011;21133;48.048;7.724;2022-08-19T08:03:53;9.97;;;9.07;;
34928;SDS011;21133;48.048;7.724;2022-08-19T08:06:38;10.37;;;8.20;;
34928;SDS011;21133;48.048;7.724;2022-08-19T08:09:25;10.30;;;9.53;;
34928;SDS011;21133;48.048;7.724;2022-08-19T08:11:56;11.40;;;9.17;;
34928;SDS011;21133;48.048;7.724;2022-08-19T08:14:24;11.90;;;10.40;;
34928;SDS011;21133;48.048;7.724;2022-08-19T08:16:51;12.83;;;9.50;;
34928;SDS011;21133;48.048;7.724;2022-08-19T08:19:19;10.37;;;9.50;;
34928;SDS011;21133;48.048;7.724;2022-08-19T08:21:45;14.00;;;8.90;;
34928;SDS011;21133;48.048;7.724;2022-08-19T08:24:11;16.57;;;8.57;;
34928;SDS011;21133;48.048;7.724;2022-08-19T08:26:38;9.57;;;8.97;;
34928;SDS011;21133;48.048;7.724;2022-08-19T08:29:04;9.80;;;8.60;;
34928;SDS011;21133;48.048;7.724;2022-08-19T08:31:32;10.63;;;9.63;;
34928;SDS011;21133;48.048;7.724;2022-08-19T08:33:58;10.93;;;10.10;;
34928;SDS011;21133;48.048;7.724;2022-08-19T08:36:24;16.23;;;10.73;;
34928;SDS011;21133;48.048;7.724;2022-08-19T08:38:51;15.50;;;11.20;;
34928;SDS011;21133;48.048;7.724;2022-08-19T08:41:35;9.97;;;9.17;;
34928;SDS011;21133;48.048;7.724;2022-08-19T08:44:03;11.23;;;10.27;;
34928;SDS011;21133;48.048;7.724;2022-08-19T08:48:59;13.63;;;12.33;;
34928;SDS011;21133;48.048;7.724;2022-08-19T08:51:29;13.60;;;9.83;;
34928;SDS011;21133;48.048;7.724;2022-08-19T08:53:58;12.60;;;11.53;;
34928;SDS011;21133;48.048;7.724;2022-08-19T08:56:24;12.37;;;11.37;;
34928;SDS011;21133;48.048;7.724;2022-08-19T08:58:58;11.23;;;10.07;;
34928;SDS011;21133;48.048;7.724;2022-08-19T09:01:25;13.30;;;12.00;;
34928;SDS011;21133;48.048;7.724;2022-08-19T09:03:52;12.03;;;10.87;;
34928;SDS011;21133;48.048;7.724;2022-08-19T09:06:22;11.50;;;10.40;;
34928;SDS011;21133;48.048;7.724;2022-08-19T09:08:59;13.50;;;12.23;;
34928;SDS011;21133;48.048;7.724;2022-08-19T09:11:32;13.53;;;11.60;;
34928;SDS011;21133;48.048;7.724;2022-08-19T09:14:10;11.90;;;10.90;;
34928;SDS011;21133;48.048;7.724;2022-08-19T09:16:38;12.80;;;11.67;;
34928;SDS011;21133;48.048;7.724;2022-08-19T09:19:05;15.10;;;12.40;;
34928;SDS011;21133;48.048;7.724;2022-08-19T09:21:32;13.77;;;12.47;;
34928;SDS011;21133;48.048;7.724;2022-08-19T09:23:59;14.47;;;12.90;;
34928;SDS011;21133;48.048;7.724;2022-08-19T09:26:25;14.60;;;13.13;;
34928;SDS011;21133;48.048;7.724;2022-08-19T09:28:52;14.03;;;12.83;;
34928;SDS011;21133;48.048;7.724;2022-08-19T09:31:20;15.37;;;13.77;;
34928;SDS011;21133;48.048;7.724;2022-08-19T09:33:47;16.97;;;12.20;;
34928;SDS011;21133;48.048;7.724;2022-08-19T09:36:14;13.90;;;12.70;;
34928;SDS011;21133;48.048;7.724;2022-08-19T09:38:40;17.33;;;13.27;;
34928;SDS011;21133;48.048;7.724;2022-08-19T09:41:12;14.37;;;12.97;;
34928;SDS011;21133;48.048;7.724;2022-08-19T09:43:39;12.17;;;10.97;;
34928;SDS011;21133;48.048;7.724;2022-08-19T09:46:05;12.33;;;10.97;;
34928;SDS011;21133;48.048;7.724;2022-08-19T09:48:33;13.80;;;11.87;;
34928;SDS011;21133;48.048;7.724;2022-08-19T09:51:06;14.20;;;12.90;;
34928;SDS011;21133;48.048;7.724;2022-08-19T09:53:33;12.80;;;11.57;;
34928;SDS011;21133;48.048;7.724;2022-08-19T09:55:59;15.13;;;13.67;;
34928;SDS011;21133;48.048;7.724;2022-08-19T09:58:25;25.23;;;12.07;;
34928;SDS011;21133;48.048;7.724;2022-08-19T10:00:56;13.57;;;12.07;;
34928;SDS011;21133;48.048;7.724;2022-08-19T10:03:22;12.20;;;11.10;;
34928;SDS011;21133;48.048;7.724;2022-08-19T10:05:48;13.93;;;12.63;;
34928;SDS011;21133;48.048;7.724;2022-08-19T10:08:20;13.70;;;12.40;;
34928;SDS011;21133;48.048;7.724;2022-08-19T10:10:47;13.07;;;12.03;;
34928;SDS011;21133;48.048;7.724;2022-08-19T10:13:15;15.13;;;13.53;;
34928;SDS011;21133;48.048;7.724;2022-08-19T10:15:42;15.57;;;13.40;;
34928;SDS011;21133;48.048;7.724;2022-08-19T10:18:08;15.70;;;13.87;;
34928;SDS011;21133;48.048;7.724;2022-08-19T10:20:34;16.50;;;14.90;;
34928;SDS011;21133;48.048;7.724;2022-08-19T10:23:01;17.80;;;12.90;;
34928;SDS011;21133;48.048;7.724;2022-08-19T10:25:27;15.10;;;13.50;;
34928;SDS011;21133;48.048;7.724;2022-08-19T10:27:53;21.73;;;14.90;;
34928;SDS011;21133;48.048;7.724;2022-08-19T10:30:19;15.47;;;14.07;;
34928;SDS011;21133;48.048;7.724;2022-08-19T10:32:46;15.50;;;14.10;;
34928;SDS011;21133;48.048;7.724;2022-08-19T10:35:13;14.20;;;12.77;;
34928;SDS011;21133;48.048;7.724;2022-08-19T10:37:39;15.60;;;14.10;;
34928;SDS011;21133;48.048;7.724;2022-08-19T10:40:06;17.00;;;15.00;;
34928;SDS011;21133;48.048;7.724;2022-08-19T10:42:33;14.83;;;13.43;;
34928;SDS011;21133;48.048;7.724;2022-08-19T10:44:59;16.13;;;14.20;;
34928;SDS011;21133;48.048;7.724;2022-08-19T10:47:25;14.47;;;13.17;;
34928;SDS011;21133;48.048;7.724;2022-08-19T10:49:54;21.17;;;15.77;;
34928;SDS011;21133;48.048;7.724;2022-08-19T10:52:43;17.07;;;13.80;;
34928;SDS011;21133;48.048;7.724;2022-08-19T10:55:10;15.00;;;13.50;;
34928;SDS011;21133;48.048;7.724;2022-08-19T10:57:54;14.50;;;13.00;;
34928;SDS011;21133;48.048;7.724;2022-08-19T11:00:22;15.43;;;13.80;;
34928;SDS011;21133;48.048;7.724;2022-08-19T11:02:48;15.73;;;14.27;;
34928;SDS011;21133;48.048;7.724;2022-08-19T11:05:15;16.00;;;13.47;;
34928;SDS011;21133;48.048;7.724;2022-08-19T11:07:42;15.37;;;13.77;;
34928;SDS011;21133;48.048;7.724;2022-08-19T11:10:10;16.73;;;15.07;;
34928;SDS011;21133;48.048;7.724;2022-08-19T11:12:36;14.50;;;13.20;;
34928;SDS011;21133;48.048;7.724;2022-08-19T11:15:04;19.17;;;17.27;;
34928;SDS011;21133;48.048;7.724;2022-08-19T11:17:30;15.30;;;13.70;;
34928;SDS011;21133;48.048;7.724;2022-08-19T11:19:56;16.03;;;14.47;;
34928;SDS011;21133;48.048;7.724;2022-08-19T11:22:22;17.80;;;15.30;;
34928;SDS011;21133;48.048;7.724;2022-08-19T11:24:48;14.37;;;13.07;;
34928;SDS011;21133;48.048;7.724;2022-08-19T11:27:14;10.67;;;9.73;;
34928;SDS011;21133;48.048;7.724;2022-08-19T11:29:40;16.23;;;14.30;;
34928;SDS011;21133;48.048;7.724;2022-08-19T11:32:08;16.20;;;14.60;;
34928;SDS011;21133;48.048;7.724;2022-08-19T11:34:35;19.43;;;15.23;;
34928;SDS011;21133;48.048;7.724;2022-08-19T11:37:02;16.97;;;13.20;;
34928;SDS011;21133;48.048;7.724;2022-08-19T11:39:29;12.60;;;11.30;;
34928;SDS011;21133;48.048;7.724;2022-08-19T11:41:57;16.13;;;14.30;;
34928;SDS011;21133;48.048;7.724;2022-08-19T11:44:23;18.73;;;16.50;;
34928;SDS011;21133;48.048;7.724;2022-08-19T11:46:50;17.70;;;15.33;;
34928;SDS011;21133;48.048;7.724;2022-08-19T11:49:18;17.70;;;14.87;;
34928;SDS011;21133;48.048;7.724;2022-08-19T11:51:45;19.77;;;16.00;;
34928;SDS011;21133;48.048;7.724;2022-08-19T11:54:12;17.60;;;15.70;;
34928;SDS011;21133;48.048;7.724;2022-08-19T11:56:38;18.57;;;14.70;;
34928;SDS011;21133;48.048;7.724;2022-08-19T11:59:04;18.80;;;15.13;;
34928;SDS011;21133;48.048;7.724;2022-08-19T12:01:30;17.17;;;14.90;;
34928;SDS011;21133;48.048;7.724;2022-08-19T12:03:56;16.27;;;14.70;;
34928;SDS011;21133;48.048;7.724;2022-08-19T12:06:24;16.30;;;14.70;;
34928;SDS011;21133;48.048;7.724;2022-08-19T12:08:53;21.27;;;14.67;;
34928;SDS011;21133;48.048;7.724;2022-08-19T12:11:19;23.33;;;14.40;;
34928;SDS011;21133;48.048;7.724;2022-08-19T12:13:46;12.70;;;11.60;;
34928;SDS011;21133;48.048;7.724;2022-08-19T12:16:14;14.97;;;13.57;;
34928;SDS011;21133;48.048;7.724;2022-08-19T12:18:40;15.90;;;13.90;;
34928;SDS011;21133;48.048;7.724;2022-08-19T12:21:09;17.83;;;15.17;;
34928;SDS011;21133;48.048;7.724;2022-08-19T12:23:36;16.20;;;14.80;;
34928;SDS011;21133;48.048;7.724;2022-08-19T12:26:02;17.57;;;15.63;;
34928;SDS011;21133;48.048;7.724;2022-08-19T12:28:28;14.70;;;13.30;;
34928;SDS011;21133;48.048;7.724;2022-08-19T12:30:55;14.50;;;13.13;;
34928;SDS011;21133;48.048;7.724;2022-08-19T12:33:21;15.40;;;13.50;;
34928;SDS011;21133;48.048;7.724;2022-08-19T12:35:50;20.33;;;14.27;;
34928;SDS011;21133;48.048;7.724;2022-08-19T12:38:16;15.60;;;13.47;;
34928;SDS011;21133;48.048;7.724;2022-08-19T12:40:45;11.97;;;11.00;;
34928;SDS011;21133;48.048;7.724;2022-08-19T12:43:11;11.80;;;11.00;;
34928;SDS011;21133;48.048;7.724;2022-08-19T12:45:38;29.80;;;13.40;;
34928;SDS011;21133;48.048;7.724;2022-08-19T12:48:04;22.60;;;12.03;;
34928;SDS011;21133;48.048;7.724;2022-08-19T12:50:30;12.40;;;10.57;;
34928;SDS011;21133;48.048;7.724;2022-08-19T12:52:57;11.93;;;11.03;;
34928;SDS011;21133;48.048;7.724;2022-08-19T12:55:23;14.50;;;11.80;;
34928;SDS011;21133;48.048;7.724;2022-08-19T12:57:50;10.37;;;9.57;;
34928;SDS011;21133;48.048;7.724;2022-08-19T13:00:17;10.43;;;9.60;;
34928;SDS011;21133;48.048;7.724;2022-08-19T13:02:46;11.50;;;8.50;;
34928;SDS011;21133;48.048;7.724;2022-08-19T13:05:15;10.23;;;9.43;;
34928;SDS011;21133;48.048;7.724;2022-08-19T13:07:41;10.00;;;9.33;;
34928;SDS011;21133;48.048;7.724;2022-08-19T13:10:11;10.20;;;9.60;;
34928;SDS011;21133;48.048;7.724;2022-08-19T13:12:39;13.70;;;12.40;;
34928;SDS011;21133;48.048;7.724;2022-08-19T13:15:06;9.67;;;8.97;;
34928;SDS011;21133;48.048;7.724;2022-08-19T13:17:33;9.30;;;8.57;;
34928;SDS011;21133;48.048;7.724;2022-08-19T13:19:59;9.47;;;8.97;;
34928;SDS011;21133;48.048;7.724;2022-08-19T13:22:25;11.27;;;10.40;;
34928;SDS011;21133;48.048;7.724;2022-08-19T13:24:51;11.53;;;10.70;;
34928;SDS011;21133;48.048;7.724;2022-08-19T13:27:18;10.67;;;9.87;;
34928;SDS011;21133;48.048;7.724;2022-08-19T13:29:44;12.73;;;10.47;;
34928;SDS011;21133;48.048;7.724;2022-08-19T13:32:29;10.77;;;9.80;;
34928;SDS011;21133;48.048;7.724;2022-08-19T13:35:14;10.30;;;9.33;;
34928;SDS011;21133;48.048;7.724;2022-08-19T13:37:40;10.93;;;10.03;;
34928;SDS011;21133;48.048;7.724;2022-08-19T13:40:17;10.77;;;9.77;;
34928;SDS011;21133;48.048;7.724;2022-08-19T13:42:44;10.27;;;9.47;;
34928;SDS011;21133;48.048;7.724;2022-08-19T13:45:11;9.40;;;8.60;;
34928;SDS011;21133;48.048;7.724;2022-08-19T13:47:37;9.37;;;8.77;;
34928;SDS011;21133;48.048;7.724;2022-08-19T13:50:13;10.40;;;9.33;;
34928;SDS011;21133;48.048;7.724;2022-08-19T13:52:40;9.13;;;8.63;;
34928;SDS011;21133;48.048;7.724;2022-08-19T13:55:06;10.87;;;10.07;;
34928;SDS011;21133;48.048;7.724;2022-08-19T13:57:32;8.93;;;8.33;;
34928;SDS011;21133;48.048;7.724;2022-08-19T13:59:58;9.77;;;8.87;;
34928;SDS011;21133;48.048;7.724;2022-08-19T14:02:24;9.60;;;9.00;;
34928;SDS011;21133;48.048;7.724;2022-08-19T14:04:51;9.43;;;8.83;;
34928;SDS011;21133;48.048;7.724;2022-08-19T14:07:17;9.17;;;8.33;;
34928;SDS011;21133;48.048;7.724;2022-08-19T14:09:43;12.70;;;11.60;;
34928;SDS011;21133;48.048;7.724;2022-08-19T14:12:09;12.73;;;9.10;;
34928;SDS011;21133;48.048;7.724;2022-08-19T14:14:38;17.40;;;11.03;;
34928;SDS011;21133;48.048;7.724;2022-08-19T14:17:07;21.97;;;12.07;;
34928;SDS011;21133;48.048;7.724;2022-08-19T14:19:34;14.27;;;12.27;;
34928;SDS011;21133;48.048;7.724;2022-08-19T14:22:00;22.03;;;14.10;;
34928;SDS011;21133;48.048;7.724;2022-08-19T14:24:26;20.07;;;14.10;;
34928;SDS011;21133;48.048;7.724;2022-08-19T14:26:52;22.10;;;14.57;;
34928;SDS011;21133;48.048;7.724;2022-08-19T14:29:18;26.20;;;13.93;;
34928;SDS011;21133;48.048;7.724;2022-08-19T14:31:44;22.03;;;14.30;;
34928;SDS011;21133;48.048;7.724;2022-08-19T14:34:10;18.77;;;13.70;;
34928;SDS011;21133;48.048;7.724;2022-08-19T14:36:37;15.37;;;13.83;;
34928;SDS011;21133;48.048;7.724;2022-08-19T14:39:03;14.63;;;13.37;;